Time;durP1;ratioP1;P1;durP2;ratioP2;P2;SDS_P1;SDS_P2;PMS_P1;PMS_P2;Temp;Humidity;BMP_temperature;BMP_pressure;BME280_temperature;BME280_humidity;BME280_pressure;Samples;Min_cycle;Max_cycle;Signal;HPM_P1;HPM_P2
2021/12/13 00:00:22;;;;;;;8.77;5.33;;;6.00;81.80;;;;;;4933392;29;20196;-88
2021/12/13 00:03:18;;;;;;;7.13;5.63;;;5.90;81.90;;;;;;4956703;28;20211;-89
2021/12/13 00:05:48;;;;;;;7.07;6.37;;;6.00;81.70;;;;;;4947860;28;20327;-87
2021/12/13 00:08:20;;;;;;;6.27;5.67;;;5.90;82.20;;;;;;4934543;28;20203;-87
2021/12/13 00:10:52;;;;;;;6.30;5.70;;;6.00;80.70;;;;;;4935993;28;20185;-88
2021/12/13 00:13:26;;;;;;;6.57;5.77;;;6.00;80.80;;;;;;4943532;28;20196;-88
2021/12/13 00:16:00;;;;;;;8.73;5.67;;;5.90;81.80;;;;;;4916751;28;20255;-88
2021/12/13 00:18:32;;;;;;;6.73;5.93;;;6.00;80.70;;;;;;4933550;28;20184;-88
2021/12/13 00:21:07;;;;;;;7.43;5.67;;;5.90;81.60;;;;;;4918612;28;20189;-87
2021/12/13 00:23:52;;;;;;;10.67;6.03;;;5.80;82.00;;;;;;4935587;28;20202;-88
2021/12/13 00:26:43;;;;;;;6.10;5.50;;;5.80;82.70;;;;;;4934327;28;20204;-88
2021/12/13 00:29:52;;;;;;;7.00;5.93;;;5.90;82.20;;;;;;4957141;28;20188;-88
2021/12/13 00:32:27;;;;;;;8.97;6.90;;;5.90;82.70;;;;;;4963479;28;20177;-88
2021/12/13 00:34:58;;;;;;;9.90;6.00;;;6.00;82.50;;;;;;4967015;28;20284;-88
2021/12/13 00:37:31;;;;;;;7.43;6.47;;;6.00;82.20;;;;;;4983719;28;20219;-87
2021/12/13 00:40:34;;;;;;;6.87;6.20;;;6.00;82.40;;;;;;4938666;28;20181;-88
2021/12/13 00:43:21;;;;;;;11.13;7.10;;;6.00;82.20;;;;;;4969546;28;20195;-88
2021/12/13 00:45:56;;;;;;;8.33;6.10;;;6.00;83.30;;;;;;4938238;28;20633;-87
2021/12/13 00:48:25;;;;;;;6.93;6.23;;;5.80;83.50;;;;;;4936585;28;20208;-88
2021/12/13 00:51:06;;;;;;;7.07;5.90;;;5.80;83.60;;;;;;4929173;28;20651;-87
2021/12/13 00:53:35;;;;;;;7.20;5.63;;;5.80;83.90;;;;;;4930154;28;20280;-88
2021/12/13 00:56:39;;;;;;;8.80;6.40;;;5.80;84.60;;;;;;4946582;28;20224;-87
2021/12/13 00:59:06;;;;;;;7.03;5.63;;;5.80;83.50;;;;;;4919423;28;20200;-87
2021/12/13 01:01:32;;;;;;;8.73;6.10;;;5.90;83.10;;;;;;4939038;28;20204;-87
2021/12/13 01:03:59;;;;;;;8.73;5.87;;;5.80;83.50;;;;;;4935715;28;20227;-87
2021/12/13 01:07:12;;;;;;;7.00;5.90;;;5.80;83.90;;;;;;4930784;28;20192;-87
2021/12/13 01:10:15;;;;;;;7.67;5.50;;;5.90;83.00;;;;;;4953276;28;20271;-87
2021/12/13 01:12:42;;;;;;;7.53;5.97;;;6.00;82.50;;;;;;4939405;28;20222;-87
2021/12/13 01:15:14;;;;;;;7.80;5.93;;;5.90;83.50;;;;;;4943404;28;20228;-87
2021/12/13 01:18:04;;;;;;;7.20;5.70;;;5.90;84.10;;;;;;4928520;28;20296;-85
2021/12/13 01:20:43;;;;;;;6.07;5.43;;;5.80;84.60;;;;;;4918839;28;20184;-86
2021/12/13 01:23:17;;;;;;;6.87;5.97;;;5.70;85.90;;;;;;4912773;28;20196;-86
2021/12/13 01:26:13;;;;;;;9.23;5.80;;;5.70;86.20;;;;;;4934919;28;20230;-87
2021/12/13 01:28:45;;;;;;;8.97;6.37;;;5.80;86.80;;;;;;4915106;28;20228;-87
2021/12/13 01:31:24;;;;;;;8.23;6.43;;;5.80;86.70;;;;;;4937683;28;20195;-85
2021/12/13 01:33:54;;;;;;;6.47;5.80;;;5.90;86.50;;;;;;5002801;28;20200;-87
2021/12/13 01:36:26;;;;;;;8.30;5.93;;;5.90;87.00;;;;;;4919033;28;20196;-87
2021/12/13 01:39:05;;;;;;;6.73;6.13;;;5.90;86.10;;;;;;4931867;28;20569;-88
2021/12/13 01:41:40;;;;;;;7.73;6.13;;;5.80;86.00;;;;;;4935979;28;20694;-87
2021/12/13 01:44:28;;;;;;;6.83;6.07;;;5.90;86.30;;;;;;4922998;28;20228;-87
2021/12/13 01:47:04;;;;;;;7.10;5.43;;;5.90;86.40;;;;;;4933898;28;20201;-87
2021/12/13 01:49:39;;;;;;;6.60;6.00;;;5.80;86.40;;;;;;4925814;28;20249;-87
2021/12/13 01:52:21;;;;;;;7.43;6.30;;;5.80;87.30;;;;;;4931000;28;20190;-87
2021/12/13 01:54:47;;;;;;;8.07;5.93;;;5.80;86.90;;;;;;4930485;29;20216;-87
2021/12/13 01:57:28;;;;;;;9.90;5.87;;;5.80;86.00;;;;;;4932027;28;20776;-87
2021/12/13 02:00:18;;;;;;;9.00;6.37;;;5.80;86.30;;;;;;4915978;28;20283;-87
2021/12/13 02:02:50;;;;;;;6.80;6.10;;;5.80;86.00;;;;;;4934547;28;20205;-87
2021/12/13 02:05:20;;;;;;;7.30;6.13;;;5.90;85.40;;;;;;4933654;29;20570;-87
2021/12/13 02:07:57;;;;;;;7.67;6.17;;;5.90;85.20;;;;;;4926310;28;20189;-87
2021/12/13 02:10:34;;;;;;;7.80;5.73;;;5.90;85.90;;;;;;4933755;28;20556;-87
2021/12/13 02:13:09;;;;;;;7.17;5.90;;;5.80;86.90;;;;;;4936826;28;20188;-87
2021/12/13 02:18:25;;;;;;;10.40;7.17;;;5.60;88.00;;;;;;4925277;28;20451;-87
2021/12/13 02:21:18;;;;;;;5.97;5.37;;;5.90;86.50;;;;;;4926975;28;20209;-87
2021/12/13 02:23:49;;;;;;;7.60;5.93;;;5.90;86.50;;;;;;4931442;28;20199;-87
2021/12/13 02:26:16;;;;;;;7.20;5.80;;;6.00;85.80;;;;;;4931705;28;20223;-87
2021/12/13 02:28:45;;;;;;;7.00;5.60;;;5.80;86.70;;;;;;4942873;28;20196;-88
2021/12/13 02:31:32;;;;;;;8.30;6.07;;;5.70;88.10;;;;;;4935049;28;20278;-88
2021/12/13 02:34:09;;;;;;;7.13;5.83;;;5.80;87.00;;;;;;4940720;28;20185;-87
2021/12/13 02:36:41;;;;;;;6.73;6.10;;;5.80;88.00;;;;;;4940276;28;20200;-88
2021/12/13 02:39:16;;;;;;;8.93;5.87;;;5.70;88.60;;;;;;4944138;28;20730;-87
2021/12/13 02:41:43;;;;;;;8.10;6.17;;;5.80;86.80;;;;;;4933858;28;20650;-86
2021/12/13 02:44:14;;;;;;;7.47;5.73;;;5.80;87.40;;;;;;4934536;28;20252;-86
2021/12/13 02:46:40;;;;;;;5.97;5.23;;;5.70;88.10;;;;;;4958796;28;20189;-86
2021/12/13 02:49:14;;;;;;;7.60;5.80;;;5.80;87.60;;;;;;4958720;28;20248;-88
2021/12/13 02:51:42;;;;;;;6.50;5.77;;;5.90;87.20;;;;;;4942481;29;20193;-87
2021/12/13 02:54:14;;;;;;;7.07;6.33;;;6.00;86.70;;;;;;4938528;28;20216;-86
2021/12/13 02:56:47;;;;;;;6.60;5.53;;;5.80;88.10;;;;;;4941962;28;20239;-87
2021/12/13 02:59:15;;;;;;;6.60;5.90;;;5.70;89.40;;;;;;4952327;28;20305;-86
2021/12/13 03:01:55;;;;;;;7.83;6.67;;;5.70;89.90;;;;;;4935620;29;20189;-86
2021/12/13 03:04:24;;;;;;;8.43;6.53;;;6.00;87.70;;;;;;4935852;28;20251;-86
2021/12/13 03:06:56;;;;;;;6.17;5.57;;;6.00;87.20;;;;;;4941553;28;20227;-86
2021/12/13 03:09:26;;;;;;;7.47;6.53;;;6.10;86.80;;;;;;4957177;28;20606;-86
2021/12/13 03:11:53;;;;;;;6.93;5.80;;;6.00;87.20;;;;;;4938139;28;20670;-86
2021/12/13 03:14:24;;;;;;;7.93;6.20;;;5.80;88.60;;;;;;4948557;28;20279;-86
2021/12/13 03:16:50;;;;;;;8.37;6.20;;;5.70;89.90;;;;;;4936260;28;20686;-86
2021/12/13 03:19:39;;;;;;;7.37;5.83;;;5.80;88.90;;;;;;4922706;28;20187;-86
2021/12/13 03:22:56;;;;;;;8.80;5.93;;;5.80;89.30;;;;;;4927318;28;20632;-86
2021/12/13 03:25:53;;;;;;;8.93;6.60;;;5.80;88.90;;;;;;4948847;28;20610;-86
2021/12/13 03:28:51;;;;;;;8.23;6.00;;;6.00;87.50;;;;;;4938791;28;20231;-87
2021/12/13 03:31:25;;;;;;;7.17;6.27;;;5.90;88.40;;;;;;4935576;28;20806;-86
2021/12/13 03:34:02;;;;;;;8.10;6.57;;;5.90;88.40;;;;;;4933845;28;20795;-86
2021/12/13 03:36:44;;;;;;;7.27;6.37;;;5.80;88.80;;;;;;4916240;28;20273;-86
2021/12/13 03:39:15;;;;;;;7.43;6.20;;;5.70;89.10;;;;;;4930743;28;20238;-85
2021/12/13 03:41:43;;;;;;;7.90;6.33;;;5.70;89.30;;;;;;4948927;28;20200;-86
2021/12/13 03:44:13;;;;;;;6.93;6.00;;;5.70;89.60;;;;;;4935182;28;20721;-84
2021/12/13 03:46:42;;;;;;;7.17;5.83;;;5.70;90.00;;;;;;4943225;28;20196;-86
2021/12/13 03:49:09;;;;;;;7.07;6.20;;;5.70;90.30;;;;;;4924180;28;20246;-86
2021/12/13 03:51:38;;;;;;;8.03;6.00;;;5.80;89.80;;;;;;4937637;28;20192;-87
2021/12/13 03:54:06;;;;;;;8.33;6.73;;;5.70;90.30;;;;;;4930531;28;20196;-86
2021/12/13 03:56:37;;;;;;;8.03;6.10;;;5.60;89.80;;;;;;4932247;28;20601;-86
2021/12/13 03:59:13;;;;;;;8.73;6.80;;;5.60;90.40;;;;;;4917692;28;20209;-86
2021/12/13 04:01:44;;;;;;;7.87;6.20;;;5.60;90.40;;;;;;4915285;28;20215;-86
2021/12/13 04:04:38;;;;;;;7.47;6.20;;;5.50;90.40;;;;;;4931683;29;20247;-86
2021/12/13 04:07:34;;;;;;;9.67;6.83;;;5.50;90.60;;;;;;4933075;28;20682;-85
2021/12/13 04:10:08;;;;;;;10.47;7.20;;;5.60;90.60;;;;;;4943747;28;20200;-86
2021/12/13 04:12:43;;;;;;;9.77;7.17;;;5.50;90.90;;;;;;4929067;28;20574;-86
2021/12/13 04:16:16;;;;;;;9.83;6.93;;;5.50;90.50;;;;;;4931388;28;20207;-86
2021/12/13 04:21:15;;;;;;;8.70;6.87;;;5.50;90.90;;;;;;4930844;28;20262;-86
2021/12/13 04:23:48;;;;;;;8.83;7.07;;;5.50;90.60;;;;;;4932639;28;20200;-86
2021/12/13 04:26:14;;;;;;;7.07;6.33;;;5.50;90.80;;;;;;4934859;28;20310;-87
2021/12/13 04:28:47;;;;;;;7.03;6.33;;;5.40;91.70;;;;;;4932738;29;20758;-86
2021/12/13 04:31:19;;;;;;;9.67;7.30;;;5.40;92.40;;;;;;4945485;28;20217;-86
2021/12/13 04:33:50;;;;;;;7.63;6.90;;;5.50;92.70;;;;;;4937734;28;20279;-86
2021/12/13 04:36:19;;;;;;;8.60;6.53;;;5.50;92.30;;;;;;4935089;29;20303;-86
2021/12/13 04:38:55;;;;;;;10.07;7.00;;;5.60;92.10;;;;;;4964766;28;20192;-87
2021/12/13 04:41:42;;;;;;;7.97;6.47;;;5.50;92.50;;;;;;4938988;28;20185;-87
2021/12/13 04:44:20;;;;;;;6.97;5.83;;;5.50;92.90;;;;;;4934145;28;20236;-86
2021/12/13 04:46:51;;;;;;;7.23;6.03;;;5.50;92.90;;;;;;4939224;28;20258;-86
2021/12/13 04:49:20;;;;;;;7.50;6.60;;;5.40;93.00;;;;;;5001092;28;20239;-87
2021/12/13 04:51:56;;;;;;;9.07;6.60;;;5.50;92.50;;;;;;4933571;28;20725;-87
2021/12/13 04:54:25;;;;;;;8.53;6.47;;;5.50;93.00;;;;;;4938243;28;20370;-86
2021/12/13 04:56:52;;;;;;;7.13;6.43;;;5.60;92.20;;;;;;4948950;28;20279;-87
2021/12/13 04:59:23;;;;;;;8.10;6.37;;;5.60;91.80;;;;;;4930364;28;20576;-86
2021/12/13 05:01:53;;;;;;;6.87;6.17;;;5.70;91.70;;;;;;4962285;28;20230;-87
2021/12/13 05:04:21;;;;;;;8.63;6.93;;;5.90;90.30;;;;;;4946061;28;20216;-87
2021/12/13 05:06:49;;;;;;;8.37;6.53;;;6.00;89.90;;;;;;4965025;28;20192;-88
2021/12/13 05:09:17;;;;;;;8.83;6.53;;;6.00;90.20;;;;;;4997348;28;20176;-86
2021/12/13 05:11:50;;;;;;;7.77;6.27;;;6.00;90.40;;;;;;4914887;28;20192;-86
2021/12/13 05:14:27;;;;;;;9.23;7.40;;;6.00;90.50;;;;;;4935679;28;20220;-87
2021/12/13 05:16:56;;;;;;;9.37;7.53;;;6.00;90.90;;;;;;4962610;28;20359;-86
2021/12/13 05:19:46;;;;;;;8.67;7.60;;;6.00;91.70;;;;;;4929174;28;20193;-87
2021/12/13 05:22:15;;;;;;;8.40;6.43;;;5.70;93.00;;;;;;4935888;28;20780;-88
2021/12/13 05:24:54;;;;;;;8.77;6.70;;;5.60;94.10;;;;;;4962479;28;20228;-88
2021/12/13 05:27:36;;;;;;;7.63;6.83;;;5.50;94.50;;;;;;4959093;28;20253;-86
2021/12/13 05:30:08;;;;;;;8.43;6.70;;;5.40;94.90;;;;;;4982873;28;20195;-87
2021/12/13 05:32:38;;;;;;;8.67;6.90;;;5.40;95.10;;;;;;4952695;28;20180;-88
2021/12/13 05:35:28;;;;;;;6.50;5.80;;;5.50;95.00;;;;;;5000435;28;20224;-88
2021/12/13 05:37:59;;;;;;;6.83;6.10;;;5.50;94.50;;;;;;4950151;28;20196;-86
2021/12/13 05:40:40;;;;;;;8.30;6.70;;;5.40;95.10;;;;;;4937031;28;20562;-86
2021/12/13 05:43:23;;;;;;;7.73;6.43;;;5.40;95.10;;;;;;4942295;28;20611;-87
2021/12/13 05:46:14;;;;;;;7.97;6.17;;;5.40;94.80;;;;;;4936801;28;20761;-87
2021/12/13 05:48:47;;;;;;;7.40;6.40;;;5.50;94.70;;;;;;4951157;28;20212;-86
2021/12/13 05:51:40;;;;;;;8.10;6.43;;;5.50;95.20;;;;;;4938405;28;20193;-87
2021/12/13 05:54:12;;;;;;;9.17;6.23;;;5.50;96.10;;;;;;4926063;28;20227;-87
2021/12/13 05:56:47;;;;;;;8.80;6.07;;;5.30;97.00;;;;;;4936996;28;20786;-86
2021/12/13 05:59:21;;;;;;;9.53;6.33;;;5.30;97.40;;;;;;4932769;28;20204;-86
2021/12/13 06:02:01;;;;;;;10.53;6.10;;;5.30;98.00;;;;;;4936573;28;20654;-86
2021/12/13 06:04:47;;;;;;;7.00;6.07;;;5.20;97.90;;;;;;4916509;28;20297;-87
2021/12/13 06:07:25;;;;;;;8.80;6.67;;;5.40;97.40;;;;;;4934941;28;20205;-86
2021/12/13 06:10:00;;;;;;;19.63;12.87;;;5.50;95.90;;;;;;4939517;28;20722;-86
2021/12/13 06:12:40;;;;;;;15.93;11.07;;;5.60;95.90;;;;;;4945567;28;20566;-87
2021/12/13 06:15:15;;;;;;;9.17;7.77;;;5.60;95.80;;;;;;4933985;28;20211;-86
2021/12/13 06:17:44;;;;;;;15.07;11.33;;;5.70;95.90;;;;;;4938150;28;20274;-86
2021/12/13 06:20:16;;;;;;;10.97;8.97;;;5.70;95.60;;;;;;4948707;28;20224;-87
2021/12/13 06:22:42;;;;;;;7.83;6.00;;;5.80;95.60;;;;;;4940986;28;20609;-87
2021/12/13 06:25:13;;;;;;;9.20;7.00;;;5.80;95.60;;;;;;4939822;28;20254;-87
2021/12/13 06:27:47;;;;;;;9.77;8.77;;;5.80;95.70;;;;;;4935437;28;20195;-86
2021/12/13 06:30:21;;;;;;;11.47;10.27;;;5.70;95.90;;;;;;4933472;28;20226;-86
2021/12/13 06:32:50;;;;;;;11.57;8.70;;;5.70;95.80;;;;;;4943472;28;20191;-86
2021/12/13 06:35:50;;;;;;;28.43;22.90;;;5.70;95.50;;;;;;4918705;28;20244;-87
2021/12/13 06:38:30;;;;;;;8.77;6.83;;;5.80;95.10;;;;;;5001194;28;20195;-86
2021/12/13 06:41:05;;;;;;;7.77;6.97;;;5.60;95.40;;;;;;4938441;28;20261;-86
2021/12/13 06:43:49;;;;;;;7.40;6.60;;;5.60;95.80;;;;;;4940178;28;20191;-86
2021/12/13 06:46:24;;;;;;;8.77;6.63;;;5.50;96.20;;;;;;4926700;28;20204;-87
2021/12/13 06:49:11;;;;;;;9.70;6.77;;;5.40;96.90;;;;;;4944999;28;20196;-87
2021/12/13 06:51:45;;;;;;;9.30;6.63;;;5.50;96.80;;;;;;4948416;28;20681;-87
2021/12/13 06:54:20;;;;;;;6.77;6.07;;;5.70;96.40;;;;;;4943000;28;20260;-86
2021/12/13 06:56:54;;;;;;;7.97;5.83;;;5.60;95.40;;;;;;4939829;28;20197;-87
2021/12/13 06:59:19;;;;;;;7.97;6.67;;;5.60;96.00;;;;;;4945917;28;20192;-87
2021/12/13 07:01:57;;;;;;;7.27;6.27;;;5.50;96.30;;;;;;4955471;28;20681;-87
2021/12/13 07:04:24;;;;;;;8.73;6.87;;;5.50;96.40;;;;;;4922167;28;20235;-86
2021/12/13 07:06:49;;;;;;;9.70;7.73;;;5.40;96.90;;;;;;4949971;28;20189;-86
2021/12/13 07:09:20;;;;;;;7.97;7.20;;;5.30;97.50;;;;;;4946336;28;20335;-87
2021/12/13 07:11:57;;;;;;;7.83;7.03;;;5.30;97.30;;;;;;4960029;28;20271;-87
2021/12/13 07:14:38;;;;;;;11.33;8.73;;;5.30;97.70;;;;;;4945582;28;20218;-87
2021/12/13 07:17:14;;;;;;;7.97;7.10;;;5.40;98.00;;;;;;4949260;28;20204;-86
2021/12/13 07:19:43;;;;;;;8.80;7.87;;;5.40;97.80;;;;;;4936524;28;20184;-87
2021/12/13 07:22:09;;;;;;;10.80;8.83;;;5.50;97.80;;;;;;4950976;28;20291;-86
2021/12/13 07:24:42;;;;;;;12.27;9.43;;;5.50;98.20;;;;;;4952469;28;20220;-87
2021/12/13 07:27:29;;;;;;;10.57;9.10;;;5.50;98.80;;;;;;4950479;28;20193;-87
2021/12/13 07:29:59;;;;;;;9.17;8.00;;;5.50;99.30;;;;;;4941422;28;20207;-86
2021/12/13 07:32:35;;;;;;;11.07;7.67;;;5.60;97.90;;;;;;4941457;28;20275;-86
2021/12/13 07:35:22;;;;;;;9.47;7.40;;;5.70;97.60;;;;;;4945710;28;20207;-86
2021/12/13 07:37:55;;;;;;;10.37;7.97;;;5.80;97.00;;;;;;4946219;28;20200;-86
2021/12/13 07:40:23;;;;;;;9.27;8.37;;;5.80;97.20;;;;;;4936952;28;20295;-87
2021/12/13 07:43:05;;;;;;;10.30;7.80;;;5.90;96.80;;;;;;4949076;28;20188;-86
2021/12/13 07:45:57;;;;;;;10.93;8.07;;;5.80;97.20;;;;;;4943908;28;20219;-87
2021/12/13 07:48:30;;;;;;;7.33;6.63;;;5.80;97.40;;;;;;4939220;28;20254;-86
2021/12/13 07:51:08;;;;;;;10.47;7.50;;;5.80;96.80;;;;;;4958896;28;20189;-86
2021/12/13 07:53:44;;;;;;;8.53;7.60;;;5.80;97.00;;;;;;4958116;28;20238;-86
2021/12/13 07:56:21;;;;;;;9.77;6.97;;;5.90;96.40;;;;;;4929668;28;20208;-86
2021/12/13 07:58:49;;;;;;;8.90;7.60;;;6.00;96.30;;;;;;4937645;29;20192;-87
2021/12/13 08:01:28;;;;;;;8.57;7.40;;;6.00;96.60;;;;;;4939740;28;20207;-86
2021/12/13 08:04:05;;;;;;;9.87;8.87;;;6.00;96.70;;;;;;4940442;28;20204;-86
2021/12/13 08:06:47;;;;;;;11.57;8.50;;;6.00;97.90;;;;;;4942265;28;20184;-87
2021/12/13 08:09:16;;;;;;;9.60;8.60;;;6.10;97.80;;;;;;4958634;28;20202;-89
2021/12/13 08:11:49;;;;;;;9.93;8.97;;;6.20;97.80;;;;;;4935863;28;20219;-87
2021/12/13 08:14:29;;;;;;;10.50;9.30;;;6.10;97.90;;;;;;4946736;28;20736;-87
2021/12/13 08:16:55;;;;;;;11.03;8.77;;;6.00;98.40;;;;;;4946873;28;20219;-86
2021/12/13 08:19:24;;;;;;;15.30;10.23;;;5.90;99.80;;;;;;4967686;28;20184;-88
2021/12/13 08:21:57;;;;;;;12.37;10.63;;;6.00;99.80;;;;;;4966300;28;20180;-87
2021/12/13 08:24:28;;;;;;;12.90;10.73;;;6.10;99.80;;;;;;4932843;28;20240;-86
2021/12/13 08:27:12;;;;;;;12.20;11.00;;;6.20;99.90;;;;;;4925566;28;20195;-85
2021/12/13 08:29:40;;;;;;;13.53;11.90;;;6.20;99.90;;;;;;4937559;28;20275;-86
2021/12/13 08:32:12;;;;;;;12.30;11.00;;;6.20;99.90;;;;;;4947129;28;20202;-87
2021/12/13 08:34:46;;;;;;;15.37;13.03;;;6.20;99.90;;;;;;4949195;28;20208;-87
2021/12/13 08:37:26;;;;;;;14.07;12.67;;;6.30;99.90;;;;;;4949058;28;20192;-87
2021/12/13 08:40:14;;;;;;;13.73;12.20;;;6.30;99.90;;;;;;4948276;28;20194;-87
2021/12/13 08:42:44;;;;;;;14.63;12.33;;;6.30;99.90;;;;;;5000249;28;20228;-87
2021/12/13 08:45:24;;;;;;;14.60;13.00;;;6.30;99.90;;;;;;4946373;28;20235;-88
2021/12/13 08:48:07;;;;;;;14.30;12.80;;;6.30;99.90;;;;;;4935503;28;20255;-88
2021/12/13 08:50:41;;;;;;;14.50;13.00;;;6.20;99.90;;;;;;4937199;28;20201;-88
2021/12/13 08:53:15;;;;;;;19.13;14.50;;;6.10;99.90;;;;;;4933077;28;20235;-87
2021/12/13 08:55:50;;;;;;;16.23;14.00;;;6.20;99.90;;;;;;4944101;28;20278;-87
2021/12/13 08:58:19;;;;;;;16.30;13.83;;;6.10;99.90;;;;;;4936973;29;20199;-88
2021/12/13 09:00:59;;;;;;;19.33;14.97;;;6.10;99.90;;;;;;4938611;29;20199;-86
2021/12/13 09:03:41;;;;;;;17.83;15.80;;;6.10;99.90;;;;;;4939929;28;20202;-85
2021/12/13 09:06:20;;;;;;;19.07;14.40;;;5.90;99.90;;;;;;4923525;28;20803;-86
2021/12/13 09:09:07;;;;;;;16.03;14.43;;;6.10;99.90;;;;;;4938261;28;20222;-86
2021/12/13 09:12:11;;;;;;;19.40;15.07;;;6.20;99.90;;;;;;4937975;28;20544;-84
2021/12/13 09:14:46;;;;;;;17.70;13.73;;;6.10;99.90;;;;;;4957777;28;20281;-86
2021/12/13 09:17:23;;;;;;;17.80;14.57;;;6.30;99.90;;;;;;4936907;28;20200;-86
2021/12/13 09:19:53;;;;;;;17.70;12.67;;;6.50;99.90;;;;;;4939320;28;20275;-86
2021/12/13 09:22:36;;;;;;;16.73;13.70;;;6.50;99.90;;;;;;4936206;28;20262;-85
2021/12/13 09:25:25;;;;;;;17.30;13.13;;;6.30;99.90;;;;;;4948868;28;20218;-86
2021/12/13 09:28:03;;;;;;;17.00;13.27;;;6.30;99.90;;;;;;4938991;28;20688;-87
2021/12/13 09:31:00;;;;;;;14.90;13.33;;;6.60;99.90;;;;;;4935555;28;20263;-86
2021/12/13 09:33:33;;;;;;;16.13;11.90;;;6.60;99.90;;;;;;4953333;28;20379;-87
2021/12/13 09:36:07;;;;;;;14.47;12.33;;;6.40;99.90;;;;;;4957467;28;20208;-84
2021/12/13 09:38:55;;;;;;;13.83;11.60;;;6.40;99.90;;;;;;4967368;28;20196;-84
2021/12/13 09:41:36;;;;;;;11.83;10.47;;;6.50;99.90;;;;;;4947645;28;20231;-85
2021/12/13 09:44:48;;;;;;;12.37;10.63;;;6.50;99.90;;;;;;4956517;28;20216;-86
2021/12/13 09:47:34;;;;;;;10.20;9.17;;;6.40;99.90;;;;;;4962963;28;20619;-86
2021/12/13 09:50:13;;;;;;;10.47;9.40;;;6.40;99.90;;;;;;4939810;28;20657;-85
2021/12/13 09:52:44;;;;;;;11.70;9.30;;;6.60;99.90;;;;;;4940172;28;20219;-87
2021/12/13 09:55:33;;;;;;;10.33;9.23;;;6.70;99.90;;;;;;4928478;28;20731;-87
2021/12/13 09:58:22;;;;;;;10.27;8.70;;;6.90;99.90;;;;;;4936467;28;20205;-87
2021/12/13 10:01:26;;;;;;;14.13;9.70;;;7.20;99.90;;;;;;4907825;28;20200;-88
2021/12/13 10:03:56;;;;;;;10.47;8.37;;;7.30;99.90;;;;;;4955468;28;20314;-88
2021/12/13 10:06:29;;;;;;;11.90;8.53;;;7.50;99.90;;;;;;4958912;28;20394;-86
2021/12/13 10:09:12;;;;;;;9.07;8.23;;;7.80;99.60;;;;;;4947350;28;20216;-86
2021/12/13 10:11:45;;;;;;;10.97;7.37;;;8.00;97.90;;;;;;4938611;28;20187;-87
2021/12/13 10:14:13;;;;;;;10.47;7.37;;;8.20;96.80;;;;;;4951858;28;20255;-85
2021/12/13 10:16:43;;;;;;;8.53;7.63;;;8.30;96.60;;;;;;4926663;28;20200;-86
2021/12/13 10:19:15;;;;;;;8.07;7.20;;;8.30;95.80;;;;;;4938449;28;20208;-85
2021/12/13 10:21:44;;;;;;;10.00;7.70;;;8.30;95.50;;;;;;4940851;28;20223;-86
2021/12/13 10:24:23;;;;;;;8.93;8.13;;;8.10;96.40;;;;;;4938632;28;20231;-86
2021/12/13 10:26:52;;;;;;;8.20;7.40;;;8.30;95.40;;;;;;4937101;28;20193;-87
2021/12/13 10:29:23;;;;;;;9.27;8.37;;;8.30;95.70;;;;;;5005661;28;20199;-87
2021/12/13 10:32:02;;;;;;;10.13;9.10;;;8.00;95.30;;;;;;4952947;28;20203;-86
2021/12/13 10:34:33;;;;;;;10.60;8.63;;;7.90;96.30;;;;;;4940102;28;20789;-86
2021/12/13 10:37:14;;;;;;;9.00;8.10;;;7.90;96.60;;;;;;4948032;28;20219;-86
2021/12/13 10:39:45;;;;;;;10.60;9.33;;;8.00;96.00;;;;;;4939443;28;20199;-86
2021/12/13 10:42:36;;;;;;;7.57;6.87;;;8.10;95.80;;;;;;4938272;28;20200;-87
2021/12/13 10:45:13;;;;;;;7.83;7.03;;;8.30;95.90;;;;;;4946604;28;20315;-86
2021/12/13 10:47:42;;;;;;;7.77;6.83;;;8.50;94.60;;;;;;4931304;28;20197;-87
2021/12/13 10:50:12;;;;;;;8.43;7.60;;;8.60;94.20;;;;;;4923346;28;20192;-86
2021/12/13 10:52:42;;;;;;;8.27;7.13;;;8.60;93.50;;;;;;4942020;29;20185;-86
2021/12/13 10:55:17;;;;;;;7.93;7.13;;;8.60;94.10;;;;;;4947224;28;20209;-85
2021/12/13 10:57:48;;;;;;;7.93;7.00;;;8.90;94.00;;;;;;4961314;28;20243;-85
2021/12/13 11:00:25;;;;;;;7.40;6.70;;;9.60;90.50;;;;;;4940308;28;20255;-87
2021/12/13 11:03:05;;;;;;;6.93;6.10;;;10.10;89.30;;;;;;4958120;28;20192;-85
2021/12/13 11:05:31;;;;;;;7.80;7.00;;;10.50;86.30;;;;;;4965354;28;20289;-85
2021/12/13 11:07:59;;;;;;;16.17;7.20;;;10.40;85.80;;;;;;4954339;28;20552;-86
2021/12/13 11:10:54;;;;;;;10.13;7.90;;;10.40;85.60;;;;;;4944191;28;20204;-88
2021/12/13 11:13:23;;;;;;;8.47;7.20;;;10.40;86.70;;;;;;4938014;28;20195;-87
2021/12/13 11:15:53;;;;;;;9.50;6.90;;;10.40;87.20;;;;;;4938795;29;20657;-88
2021/12/13 11:18:27;;;;;;;19.33;15.17;;;10.20;88.20;;;;;;4935932;28;20218;-87
2021/12/13 11:21:00;;;;;;;7.43;6.73;;;10.20;88.20;;;;;;4939757;28;20205;-87
2021/12/13 11:23:26;;;;;;;7.40;6.53;;;10.10;88.10;;;;;;4938095;29;20202;-88
2021/12/13 11:25:57;;;;;;;8.10;7.27;;;10.10;88.80;;;;;;4937423;28;20227;-88
2021/12/13 11:28:24;;;;;;;8.13;7.33;;;10.20;88.80;;;;;;4915420;28;20203;-87
2021/12/13 11:30:51;;;;;;;8.83;7.60;;;10.30;88.00;;;;;;4920053;28;20205;-87
2021/12/13 11:33:39;;;;;;;9.83;8.20;;;10.20;88.40;;;;;;4937232;28;20188;-87
2021/12/13 11:36:39;;;;;;;10.70;9.10;;;10.30;88.40;;;;;;4939073;28;20243;-88
2021/12/13 11:39:41;;;;;;;18.10;10.20;;;10.40;88.70;;;;;;4936604;28;20207;-88
2021/12/13 11:42:38;;;;;;;10.43;9.40;;;10.40;88.50;;;;;;4937844;29;20195;-89
2021/12/13 11:45:12;;;;;;;11.07;9.40;;;10.40;88.70;;;;;;4933067;28;20291;-88
2021/12/13 11:47:47;;;;;;;10.03;8.77;;;10.40;88.80;;;;;;4945682;28;20193;-90
2021/12/13 11:50:42;;;;;;;9.93;8.93;;;10.80;88.20;;;;;;4957913;29;20189;-88
2021/12/13 11:53:43;;;;;;;11.00;9.90;;;11.10;87.10;;;;;;4954698;28;20183;-89
2021/12/13 11:56:46;;;;;;;9.23;7.77;;;11.40;85.80;;;;;;4947241;28;20230;-90
2021/12/13 11:59:34;;;;;;;10.07;8.87;;;11.30;84.00;;;;;;4951533;28;20668;-87
2021/12/13 12:02:38;;;;;;;8.70;7.37;;;11.00;85.50;;;;;;4939495;29;20200;-88
2021/12/13 12:05:46;;;;;;;10.23;9.13;;;10.70;87.90;;;;;;4999055;28;20228;-88
2021/12/13 12:08:38;;;;;;;20.97;9.27;;;10.70;87.20;;;;;;4933489;28;20191;-88
2021/12/13 12:11:36;;;;;;;10.07;8.47;;;10.70;86.80;;;;;;4939880;28;20277;-88
2021/12/13 12:14:09;;;;;;;10.33;9.20;;;10.80;87.00;;;;;;4926462;28;20194;-88
2021/12/13 12:16:44;;;;;;;11.60;9.47;;;10.80;87.90;;;;;;4941366;28;20185;-88
2021/12/13 12:19:18;;;;;;;12.17;10.47;;;10.70;88.20;;;;;;4955143;28;20194;-88
2021/12/13 12:21:58;;;;;;;13.57;11.60;;;10.90;87.00;;;;;;4952074;28;20186;-88
2021/12/13 12:24:37;;;;;;;12.97;10.67;;;10.90;87.10;;;;;;4965779;28;20227;-87
2021/12/13 12:27:08;;;;;;;10.57;9.47;;;10.80;87.00;;;;;;5005156;28;20206;-88
2021/12/13 12:29:38;;;;;;;10.77;8.97;;;10.80;87.00;;;;;;5007965;28;20213;-87
2021/12/13 12:32:26;;;;;;;9.73;8.70;;;10.90;87.30;;;;;;5003703;28;20272;-87
2021/12/13 12:34:59;;;;;;;10.40;9.27;;;11.00;86.90;;;;;;5006587;28;20209;-88
2021/12/13 12:37:48;;;;;;;12.77;9.17;;;11.00;86.20;;;;;;5020206;28;20192;-88
2021/12/13 12:40:37;;;;;;;11.20;9.30;;;11.00;86.40;;;;;;5017050;28;20219;-88
2021/12/13 12:43:19;;;;;;;10.03;8.20;;;10.90;87.20;;;;;;5026479;28;20621;-87
2021/12/13 12:45:56;;;;;;;12.13;9.37;;;10.90;86.50;;;;;;5023175;28;20215;-87
2021/12/13 12:48:25;;;;;;;8.90;8.00;;;10.80;87.20;;;;;;5026400;28;20230;-87
2021/12/13 12:50:54;;;;;;;10.03;8.10;;;10.80;87.10;;;;;;5020005;28;20194;-87
2021/12/13 12:53:38;;;;;;;10.27;8.40;;;10.80;87.10;;;;;;5014469;28;20348;-87
2021/12/13 12:56:21;;;;;;;11.10;10.00;;;10.80;87.20;;;;;;5013235;28;20219;-86
2021/12/13 12:58:58;;;;;;;12.53;9.00;;;10.70;87.70;;;;;;4997345;28;20195;-87
2021/12/13 13:01:32;;;;;;;16.27;10.43;;;10.70;88.30;;;;;;5012751;28;20196;-89
2021/12/13 13:04:21;;;;;;;11.30;10.00;;;10.60;88.90;;;;;;5020223;28;20607;-89
2021/12/13 13:07:17;;;;;;;10.57;8.13;;;10.50;88.90;;;;;;5009177;28;20176;-86
2021/12/13 13:09:54;;;;;;;8.97;8.07;;;10.40;89.90;;;;;;5011174;28;20231;-88
2021/12/13 13:12:29;;;;;;;15.70;10.53;;;10.50;89.70;;;;;;5014359;28;20253;-87
2021/12/13 13:14:57;;;;;;;9.27;8.00;;;10.50;90.10;;;;;;5010423;28;20230;-87
2021/12/13 13:17:25;;;;;;;9.10;7.80;;;10.50;90.30;;;;;;5013294;28;20333;-87
2021/12/13 13:19:55;;;;;;;15.27;8.53;;;10.50;90.20;;;;;;5013549;28;20658;-87
2021/12/13 13:22:26;;;;;;;9.07;7.53;;;10.50;90.50;;;;;;5011965;28;20222;-87
2021/12/13 13:24:56;;;;;;;10.60;9.13;;;10.50;90.70;;;;;;4967414;28;20757;-86
2021/12/13 13:27:24;;;;;;;12.50;7.70;;;10.60;90.60;;;;;;4932314;28;20212;-87
2021/12/13 13:29:51;;;;;;;13.30;7.70;;;10.60;89.90;;;;;;4935517;28;20245;-86
2021/12/13 13:32:17;;;;;;;11.90;7.80;;;10.60;90.50;;;;;;4926710;28;20190;-85
2021/12/13 13:34:47;;;;;;;13.23;8.00;;;10.50;91.30;;;;;;4938488;28;20217;-86
2021/12/13 13:37:17;;;;;;;12.50;7.80;;;10.60;90.70;;;;;;4955457;28;20194;-87
2021/12/13 13:39:53;;;;;;;9.10;8.20;;;10.50;90.50;;;;;;4937873;29;20181;-89
2021/12/13 13:42:27;;;;;;;11.53;8.97;;;10.50;90.70;;;;;;4934260;28;20696;-87
2021/12/13 13:44:52;;;;;;;17.53;13.00;;;10.50;90.70;;;;;;4966357;28;20233;-87
2021/12/13 13:47:28;;;;;;;13.77;11.50;;;10.50;91.40;;;;;;4939681;28;20198;-89